General Aviation Weather

Text Reports

Enter one or more of the following location identifiers separated by a space:

Zip Code, Four-Character ICAO or Three-Character IATA airport codes.

METAR - Aviation Routine Weather Report
KMWM - Windom, Minnesota
Updated at 5:13 PM GMT on October 02, 2014 (12:13 PM CDT):
METAR KMWM 021713Z AUTO 31009KT 7SM -RA BKN006 OVC037 12/11 A2985 RMK AO2
TAF - Terminal Area Forecast
KMWM - Windom, Minnesota
Updated at 5:13 PM GMT on October 02, 2014 (12:13 PM CDT):
No TAF is currently available for this location.
Decoded:
No decoded TAF is available.
PIREP - Pilot Weather Report
KMWM - Windom, Minnesota
Updated at 5:13 PM GMT on October 02, 2014 (12:13 PM CDT):
No PIREP is currently available for this location.
AIRMET - Airmens Meteorological Information
KMWM - Windom, Minnesota
Updated at 5:13 PM GMT on October 02, 2014 (12:13 PM CDT):
No AIRMET is currently available for this location.
SIGMET - Significant Meteorological Information
KMWM - Windom, Minnesota
Updated at 5:13 PM GMT on October 02, 2014 (12:13 PM CDT):
No SIGMET is currently available for this location.
NOTAM - Notice to Airmen
KMWM - Windom, Minnesota
Updated at 5:13 PM GMT on October 02, 2014 (12:13 PM CDT):
No NOTAM is currently available for this location.
Forecast Area
KMWM - Windom, Minnesota
Updated at 5:13 PM GMT on October 02, 2014 (12:13 PM CDT):
No NOTAM is currently available for this location.
Aviation Weather Maps